Lubbock International, TX

4:00 AM CDT on May 22, 2015 (GMT -0500)
Lubbock International | | Change Station
CLOSE
Current Station
Airport
Location: Lubbock,
Elevation: 3241 ft
Nearby Weather Stations

Elev 3241 ft 33.67 °N, 101.82 °W | Updated 7 minutes ago

Overcast
Overcast
52 °F
Feels Like 52 °F
N
6
Wind Variable Wind from NE

Today
High -- | Low -- °F
--% Chance of Precip.
Yesterday
High -- | Low -- °F
Precip. -- in
6:42 AM 8:46 PM
Waxing Crescent, 20% visible
Pressure 30.06 in
Visibility 10.0 miles
Clouds Mostly Cloudy 400 ft
Overcast 2400 ft
Dew Point 51 °F
Humidity 97%
Rainfall 0.44 in
Snow Depth Not available.
UV 0 out of 12
Pollen 2.50 out of 12
Air Quality Not available.
Flu Activity Sporadic
METAR KLBB 220853Z 05005KT 10SM BKN004 OVC024 11/11 A3011 RMK AO2 RAE44 TSE11 SLP177 P0006 60042 T01110106 58006 $

More Conditions Fewer Conditions

Pressure 30.06 in
Visibility 10.0 miles
Clouds Mostly Cloudy 400 ft
Overcast 2400 ft
Dew Point 51 °F
Humidity 97%
Rainfall 0.44 in
Snow Depth Not available.
UV 0 out of 12
Pollen 2.50 out of 12
Air Quality Not available.
Flu Activity Sporadic
METAR KLBB 220853Z 05005KT 10SM BKN004 OVC024 11/11 A3011 RMK AO2 RAE44 TSE11 SLP177 P0006 60042 T01110106 58006 $

More Conditions Fewer Conditions

Nowcast | as of 3:41 am CDT on May 22, 2015

Through 6 am...scattered to numerous showers with embedded thunderstorms will continue to move from west and southwest to east and northeast across the South Plains...rolling plains...and far southern Texas Panhandle. Hourly rainfall rates of up to a quarter of an inch will occur...with additional rainfall amounts of up to half an inch possible more notably in the rolling plains.

×

10-Day Weather Forecast

Almanac

Astronomy

May. 22, 2015 Rise Set
Actual Time
Civil Twilight
Nautical Twilight
Astronomical Twilight
Moon
Length of Visible Light
Length of Day
Tomorrow will be .
, % of the Moon is Illuminated

Today's Extremes

State Highs State Lows

Community

WunderPhotos

Upload Photos

1,823,195 photos uploaded!

WunderBlogs® & News

Nearby

Air Quality

  Air Quality AQ Index Pollutant
Not available.

Snow Depth

Station Depth Elevation

Earthquake Activity

City Distance Mag. Time & Date
Minimum magnitude displayed is 2.5.

Coastal Water Temperatures

Place Temperature

Stations

Nearby Weather Stations

Station Location Temp. Windchill Dew Point Humidity Wind Precip. Elev Updated Type